This is the latest recevied weather packets stored in our database for station/object N0HOT. If no packets are shown the sender has not sent any weather packets the latest 10 day(s).
| Time | Temp. | Humidity | Pressure | Rain* | Wind** | Luminosity | Snow |
|---|---|---|---|---|---|---|---|
| 1777339233 | 15° C | 78% | 999 hPa | 0 mm | - | 0 W/m² | - |
| 1777338930 | 15° C | 78% | 999 hPa | 0 mm | - | 0 W/m² | - |
| 1777338325 | 15.56° C | 77% | 998.6 hPa | 0 mm | - | 0 W/m² | - |
| 1777338021 | 16.11° C | 76% | 998.6 hPa | 0 mm | - | 0 W/m² | - |
| 1777337112 | 16.67° C | 74% | 998.3 hPa | 0 mm | - | 7 W/m² | - |
| 1777335903 | 17.22° C | 73% | 998 hPa | 0 mm | - | 19 W/m² | - |
| 1777335297 | 17.22° C | 78% | 997.6 hPa | 0 mm | - | 39 W/m² | - |
| 1777334085 | 17.78° C | 81% | 997 hPa | 3.05 mm | - | 67 W/m² | - |
| 1777329543 | 18.33° C | 82% | 997 hPa | 0 mm | - | 14 W/m² | - |
| 1777328938 | 18.89° C | 81% | 997 hPa | 0 mm | - | 10 W/m² | - |
| 1777313494 | 15° C | 86% | 999.3 hPa | 0 mm | - | 64 W/m² | - |
| 1777313191 | 15° C | 87% | 999 hPa | 0 mm | - | 46 W/m² | - |
| 1777312887 | 15° C | 87% | 999 hPa | 0 mm | - | 127 W/m² | - |
| 1777312584 | 15° C | 87% | 999 hPa | 0 mm | - | 70 W/m² | - |
| 1777311373 | 14.44° C | 87% | 999.7 hPa | 0 mm | - | 142 W/m² | - |
| 1777311070 | 14.44° C | 87% | 999.7 hPa | 0 mm | - | 142 W/m² | - |
| 1777310768 | 14.44° C | 87% | 999.7 hPa | 0 mm | - | 142 W/m² | - |
| 1777310465 | 14.44° C | 87% | 999.7 hPa | 0 mm | - | 220 W/m² | - |
| 1777310161 | 14.44° C | 87% | 999.7 hPa | 0 mm | - | 220 W/m² | - |
| 1777309557 | 14.44° C | 87% | 1000 hPa | 0 mm | - | 54 W/m² | - |
| 1777309254 | 14.44° C | 87% | 1000 hPa | 0 mm | - | 43 W/m² | - |
| 1777308648 | 13.89° C | 87% | 1000 hPa | 0 mm | - | 83 W/m² | - |
| 1777307737 | 13.89° C | 87% | 1000 hPa | 0 mm | - | 48 W/m² | - |
| 1777307433 | 13.89° C | 87% | 999.7 hPa | 0 mm | - | 60 W/m² | - |
| 1777306828 | 13.33° C | 87% | 999.7 hPa | 0 mm | - | 49 W/m² | - |
* Rain latest hour (hover to see other rain measurements)
** Current wind speed in m/s (hover to see current wind gust speed)